sensor_id;sensor_type;location;lat;lon;timestamp;temperature;humidity
12588;DHT22;6359;51.450;7.346;2022-08-07T00:00:02;10.90;99.90
12588;DHT22;6359;51.450;7.346;2022-08-07T00:02:29;10.80;99.90
12588;DHT22;6359;51.450;7.346;2022-08-07T00:04:57;10.90;99.90
12588;DHT22;6359;51.450;7.346;2022-08-07T00:07:24;10.90;99.90
12588;DHT22;6359;51.450;7.346;2022-08-07T00:09:51;10.90;99.90
12588;DHT22;6359;51.450;7.346;2022-08-07T00:12:18;10.80;99.90
12588;DHT22;6359;51.450;7.346;2022-08-07T00:14:45;10.70;99.90
12588;DHT22;6359;51.450;7.346;2022-08-07T00:17:12;10.70;99.90
12588;DHT22;6359;51.450;7.346;2022-08-07T00:19:39;10.70;99.90
12588;DHT22;6359;51.450;7.346;2022-08-07T00:22:08;10.70;99.90
12588;DHT22;6359;51.450;7.346;2022-08-07T00:24:35;10.70;99.90
12588;DHT22;6359;51.450;7.346;2022-08-07T00:27:02;10.70;99.90
12588;DHT22;6359;51.450;7.346;2022-08-07T00:29:29;10.70;99.90
12588;DHT22;6359;51.450;7.346;2022-08-07T00:31:56;10.70;99.90
12588;DHT22;6359;51.450;7.346;2022-08-07T00:34:24;10.80;99.90
12588;DHT22;6359;51.450;7.346;2022-08-07T00:36:51;10.60;99.90
12588;DHT22;6359;51.450;7.346;2022-08-07T00:39:19;10.50;99.90
12588;DHT22;6359;51.450;7.346;2022-08-07T00:41:50;10.50;99.90
12588;DHT22;6359;51.450;7.346;2022-08-07T00:44:17;10.40;99.90
12588;DHT22;6359;51.450;7.346;2022-08-07T00:46:44;10.40;99.90
12588;DHT22;6359;51.450;7.346;2022-08-07T00:49:11;10.30;99.90
12588;DHT22;6359;51.450;7.346;2022-08-07T00:51:38;10.30;99.90
12588;DHT22;6359;51.450;7.346;2022-08-07T00:54:05;10.30;99.90
12588;DHT22;6359;51.450;7.346;2022-08-07T00:56:34;10.20;99.90
12588;DHT22;6359;51.450;7.346;2022-08-07T00:59:02;10.20;99.90
12588;DHT22;6359;51.450;7.346;2022-08-07T01:01:30;10.20;99.90
12588;DHT22;6359;51.450;7.346;2022-08-07T01:03:57;10.30;99.90
12588;DHT22;6359;51.450;7.346;2022-08-07T01:06:24;10.30;99.90
12588;DHT22;6359;51.450;7.346;2022-08-07T01:08:51;10.30;99.90
12588;DHT22;6359;51.450;7.346;2022-08-07T01:11:18;10.30;99.90
12588;DHT22;6359;51.450;7.346;2022-08-07T01:13:47;10.20;99.90
12588;DHT22;6359;51.450;7.346;2022-08-07T01:16:14;10.20;99.90
12588;DHT22;6359;51.450;7.346;2022-08-07T01:18:41;10.10;99.90
12588;DHT22;6359;51.450;7.346;2022-08-07T01:21:11;10.10;99.90
12588;DHT22;6359;51.450;7.346;2022-08-07T01:23:39;10.10;99.90
12588;DHT22;6359;51.450;7.346;2022-08-07T01:26:08;10.00;99.90
12588;DHT22;6359;51.450;7.346;2022-08-07T01:28:35;9.90;99.90
12588;DHT22;6359;51.450;7.346;2022-08-07T01:31:03;9.90;99.90
12588;DHT22;6359;51.450;7.346;2022-08-07T01:33:31;9.80;99.90
12588;DHT22;6359;51.450;7.346;2022-08-07T01:35:58;9.80;99.90
12588;DHT22;6359;51.450;7.346;2022-08-07T01:38:28;9.90;99.90
12588;DHT22;6359;51.450;7.346;2022-08-07T01:40:58;9.90;99.90
12588;DHT22;6359;51.450;7.346;2022-08-07T01:43:26;9.90;99.90
12588;DHT22;6359;51.450;7.346;2022-08-07T01:45:54;9.80;99.90
12588;DHT22;6359;51.450;7.346;2022-08-07T01:48:22;9.80;99.90
12588;DHT22;6359;51.450;7.346;2022-08-07T01:50:52;9.70;99.90
12588;DHT22;6359;51.450;7.346;2022-08-07T01:53:21;9.70;99.90
12588;DHT22;6359;51.450;7.346;2022-08-07T01:55:53;9.70;99.90
12588;DHT22;6359;51.450;7.346;2022-08-07T01:58:22;9.70;99.90
12588;DHT22;6359;51.450;7.346;2022-08-07T02:00:56;9.70;99.90
12588;DHT22;6359;51.450;7.346;2022-08-07T02:03:23;9.80;99.90
12588;DHT22;6359;51.450;7.346;2022-08-07T02:05:56;9.90;99.90
12588;DHT22;6359;51.450;7.346;2022-08-07T02:08:25;9.70;99.90
12588;DHT22;6359;51.450;7.346;2022-08-07T02:10:55;9.70;99.90
12588;DHT22;6359;51.450;7.346;2022-08-07T02:13:26;9.60;99.90
12588;DHT22;6359;51.450;7.346;2022-08-07T02:15:54;9.50;99.90
12588;DHT22;6359;51.450;7.346;2022-08-07T02:18:22;9.50;99.90
12588;DHT22;6359;51.450;7.346;2022-08-07T02:20:54;9.50;99.90
12588;DHT22;6359;51.450;7.346;2022-08-07T02:23:22;9.40;99.90
12588;DHT22;6359;51.450;7.346;2022-08-07T02:25:53;9.40;99.90
12588;DHT22;6359;51.450;7.346;2022-08-07T02:28:22;9.40;99.90
12588;DHT22;6359;51.450;7.346;2022-08-07T02:30:52;9.30;99.90
12588;DHT22;6359;51.450;7.346;2022-08-07T02:33:19;9.30;99.90
12588;DHT22;6359;51.450;7.346;2022-08-07T02:35:49;9.20;99.90
12588;DHT22;6359;51.450;7.346;2022-08-07T02:38:18;9.20;99.90
12588;DHT22;6359;51.450;7.346;2022-08-07T02:40:46;9.20;99.90
12588;DHT22;6359;51.450;7.346;2022-08-07T02:43:15;9.20;99.90
12588;DHT22;6359;51.450;7.346;2022-08-07T02:45:43;9.20;99.90
12588;DHT22;6359;51.450;7.346;2022-08-07T02:48:12;9.20;99.90
12588;DHT22;6359;51.450;7.346;2022-08-07T02:50:42;9.20;99.90
12588;DHT22;6359;51.450;7.346;2022-08-07T02:53:13;9.30;99.90
12588;DHT22;6359;51.450;7.346;2022-08-07T02:55:44;9.20;99.90
12588;DHT22;6359;51.450;7.346;2022-08-07T02:58:16;9.10;99.90
12588;DHT22;6359;51.450;7.346;2022-08-07T03:00:44;9.10;99.90
12588;DHT22;6359;51.450;7.346;2022-08-07T03:03:15;9.00;99.90
12588;DHT22;6359;51.450;7.346;2022-08-07T03:05:43;9.00;99.90
12588;DHT22;6359;51.450;7.346;2022-08-07T03:08:11;9.00;99.90
12588;DHT22;6359;51.450;7.346;2022-08-07T03:10:39;9.00;99.90
12588;DHT22;6359;51.450;7.346;2022-08-07T03:13:06;9.00;99.90
12588;DHT22;6359;51.450;7.346;2022-08-07T03:15:36;9.00;99.90
12588;DHT22;6359;51.450;7.346;2022-08-07T03:18:03;9.00;99.90
12588;DHT22;6359;51.450;7.346;2022-08-07T03:20:30;8.90;99.90
12588;DHT22;6359;51.450;7.346;2022-08-07T03:22:58;8.90;99.90
12588;DHT22;6359;51.450;7.346;2022-08-07T03:25:26;8.80;99.90
12588;DHT22;6359;51.450;7.346;2022-08-07T03:27:55;8.80;99.90
12588;DHT22;6359;51.450;7.346;2022-08-07T03:30:24;8.90;99.90
12588;DHT22;6359;51.450;7.346;2022-08-07T03:32:53;8.90;99.90
12588;DHT22;6359;51.450;7.346;2022-08-07T03:35:22;8.90;99.90
12588;DHT22;6359;51.450;7.346;2022-08-07T03:37:52;8.90;99.90
12588;DHT22;6359;51.450;7.346;2022-08-07T03:40:22;8.80;99.90
12588;DHT22;6359;51.450;7.346;2022-08-07T03:42:50;8.80;99.90
12588;DHT22;6359;51.450;7.346;2022-08-07T03:45:17;8.70;99.90
12588;DHT22;6359;51.450;7.346;2022-08-07T03:47:45;8.80;99.90
12588;DHT22;6359;51.450;7.346;2022-08-07T03:50:13;8.80;99.90
12588;DHT22;6359;51.450;7.346;2022-08-07T03:52:42;8.80;99.90
12588;DHT22;6359;51.450;7.346;2022-08-07T03:55:10;8.80;99.90
12588;DHT22;6359;51.450;7.346;2022-08-07T03:57:37;8.80;99.90
12588;DHT22;6359;51.450;7.346;2022-08-07T04:00:06;8.80;99.90
12588;DHT22;6359;51.450;7.346;2022-08-07T04:02:33;8.80;99.90
12588;DHT22;6359;51.450;7.346;2022-08-07T04:05:01;8.90;99.90
12588;DHT22;6359;51.450;7.346;2022-08-07T04:07:31;8.90;99.90
12588;DHT22;6359;51.450;7.346;2022-08-07T04:09:59;8.90;99.90
12588;DHT22;6359;51.450;7.346;2022-08-07T04:12:28;8.80;99.90
12588;DHT22;6359;51.450;7.346;2022-08-07T04:14:56;8.80;99.90
12588;DHT22;6359;51.450;7.346;2022-08-07T04:17:24;8.80;99.90
12588;DHT22;6359;51.450;7.346;2022-08-07T04:19:51;8.80;99.90
12588;DHT22;6359;51.450;7.346;2022-08-07T04:22:18;8.80;99.90
12588;DHT22;6359;51.450;7.346;2022-08-07T04:24:48;8.80;99.90
12588;DHT22;6359;51.450;7.346;2022-08-07T04:27:15;8.90;99.90
12588;DHT22;6359;51.450;7.346;2022-08-07T04:29:42;8.90;99.90
12588;DHT22;6359;51.450;7.346;2022-08-07T04:32:09;8.80;99.90
12588;DHT22;6359;51.450;7.346;2022-08-07T04:34:38;8.80;99.90
12588;DHT22;6359;51.450;7.346;2022-08-07T04:37:05;8.90;99.90
12588;DHT22;6359;51.450;7.346;2022-08-07T04:39:32;8.80;99.90
12588;DHT22;6359;51.450;7.346;2022-08-07T04:42:02;8.90;99.90
12588;DHT22;6359;51.450;7.346;2022-08-07T04:44:29;9.00;99.90
12588;DHT22;6359;51.450;7.346;2022-08-07T04:47:02;9.00;99.90
12588;DHT22;6359;51.450;7.346;2022-08-07T04:49:38;9.00;99.90
12588;DHT22;6359;51.450;7.346;2022-08-07T04:52:11;9.00;99.90
12588;DHT22;6359;51.450;7.346;2022-08-07T04:54:46;9.10;99.90
12588;DHT22;6359;51.450;7.346;2022-08-07T04:57:29;9.20;99.90
12588;DHT22;6359;51.450;7.346;2022-08-07T05:00:03;9.20;99.90
12588;DHT22;6359;51.450;7.346;2022-08-07T05:02:34;9.30;99.90
12588;DHT22;6359;51.450;7.346;2022-08-07T05:05:10;9.40;99.90
12588;DHT22;6359;51.450;7.346;2022-08-07T05:07:43;9.50;99.90
12588;DHT22;6359;51.450;7.346;2022-08-07T05:10:15;9.50;99.90
12588;DHT22;6359;51.450;7.346;2022-08-07T05:12:51;9.60;99.90
12588;DHT22;6359;51.450;7.346;2022-08-07T05:15:23;9.70;99.90
12588;DHT22;6359;51.450;7.346;2022-08-07T05:17:54;9.80;99.90
12588;DHT22;6359;51.450;7.346;2022-08-07T05:20:25;9.80;99.90
12588;DHT22;6359;51.450;7.346;2022-08-07T05:22:55;10.00;99.90
12588;DHT22;6359;51.450;7.346;2022-08-07T05:25:24;10.10;99.90
12588;DHT22;6359;51.450;7.346;2022-08-07T05:27:55;10.20;99.90
12588;DHT22;6359;51.450;7.346;2022-08-07T05:30:23;10.30;99.90
12588;DHT22;6359;51.450;7.346;2022-08-07T05:32:51;10.40;99.90
12588;DHT22;6359;51.450;7.346;2022-08-07T05:35:18;10.50;99.90
12588;DHT22;6359;51.450;7.346;2022-08-07T05:37:46;10.60;99.90
12588;DHT22;6359;51.450;7.346;2022-08-07T05:40:14;10.70;99.90
12588;DHT22;6359;51.450;7.346;2022-08-07T05:42:42;10.90;99.90
12588;DHT22;6359;51.450;7.346;2022-08-07T05:45:11;11.00;99.90
12588;DHT22;6359;51.450;7.346;2022-08-07T05:47:39;11.20;99.90
12588;DHT22;6359;51.450;7.346;2022-08-07T05:50:08;11.40;99.90
12588;DHT22;6359;51.450;7.346;2022-08-07T05:52:35;11.60;99.90
12588;DHT22;6359;51.450;7.346;2022-08-07T05:55:03;11.80;99.90
12588;DHT22;6359;51.450;7.346;2022-08-07T05:57:30;12.30;99.90
12588;DHT22;6359;51.450;7.346;2022-08-07T05:59:58;13.90;99.90
12588;DHT22;6359;51.450;7.346;2022-08-07T06:02:30;15.90;99.90
12588;DHT22;6359;51.450;7.346;2022-08-07T06:05:01;18.00;99.90
12588;DHT22;6359;51.450;7.346;2022-08-07T06:07:29;19.90;99.90
12588;DHT22;6359;51.450;7.346;2022-08-07T06:09:56;21.30;99.90
12588;DHT22;6359;51.450;7.346;2022-08-07T06:12:23;22.60;99.90
12588;DHT22;6359;51.450;7.346;2022-08-07T06:14:50;23.20;99.90
12588;DHT22;6359;51.450;7.346;2022-08-07T06:17:18;23.80;99.90
12588;DHT22;6359;51.450;7.346;2022-08-07T06:19:47;24.40;99.90
12588;DHT22;6359;51.450;7.346;2022-08-07T06:22:15;25.10;99.90
12588;DHT22;6359;51.450;7.346;2022-08-07T06:24:43;25.10;99.90
12588;DHT22;6359;51.450;7.346;2022-08-07T06:27:10;25.20;99.90
12588;DHT22;6359;51.450;7.346;2022-08-07T06:29:45;25.40;99.90
12588;DHT22;6359;51.450;7.346;2022-08-07T06:32:12;26.40;98.90
12588;DHT22;6359;51.450;7.346;2022-08-07T06:34:39;27.90;94.50
12588;DHT22;6359;51.450;7.346;2022-08-07T06:37:07;28.10;91.80
12588;DHT22;6359;51.450;7.346;2022-08-07T06:39:34;27.90;91.80
12588;DHT22;6359;51.450;7.346;2022-08-07T06:42:04;27.80;91.70
12588;DHT22;6359;51.450;7.346;2022-08-07T06:44:33;28.00;90.10
12588;DHT22;6359;51.450;7.346;2022-08-07T06:47:01;28.40;85.50
12588;DHT22;6359;51.450;7.346;2022-08-07T06:49:28;27.80;90.10
12588;DHT22;6359;51.450;7.346;2022-08-07T06:51:56;27.30;90.60
12588;DHT22;6359;51.450;7.346;2022-08-07T06:54:26;27.10;93.00
12588;DHT22;6359;51.450;7.346;2022-08-07T06:56:54;28.20;88.00
12588;DHT22;6359;51.450;7.346;2022-08-07T06:59:25;29.00;85.80
12588;DHT22;6359;51.450;7.346;2022-08-07T07:01:53;29.20;84.20
12588;DHT22;6359;51.450;7.346;2022-08-07T07:04:20;29.40;81.60
12588;DHT22;6359;51.450;7.346;2022-08-07T07:06:47;29.00;83.40
12588;DHT22;6359;51.450;7.346;2022-08-07T07:09:18;28.80;81.70
12588;DHT22;6359;51.450;7.346;2022-08-07T07:11:57;28.60;81.30
12588;DHT22;6359;51.450;7.346;2022-08-07T07:14:28;28.60;83.10
12588;DHT22;6359;51.450;7.346;2022-08-07T07:16:59;28.80;82.20
12588;DHT22;6359;51.450;7.346;2022-08-07T07:19:32;29.00;82.80
12588;DHT22;6359;51.450;7.346;2022-08-07T07:21:59;28.90;81.30
12588;DHT22;6359;51.450;7.346;2022-08-07T07:24:27;29.30;78.90
12588;DHT22;6359;51.450;7.346;2022-08-07T07:26:57;29.00;83.00
12588;DHT22;6359;51.450;7.346;2022-08-07T07:29:31;29.50;78.70
12588;DHT22;6359;51.450;7.346;2022-08-07T07:32:01;29.60;77.80
12588;DHT22;6359;51.450;7.346;2022-08-07T07:34:29;29.70;78.70
12588;DHT22;6359;51.450;7.346;2022-08-07T07:36:59;29.50;76.80
12588;DHT22;6359;51.450;7.346;2022-08-07T07:39:27;29.70;77.50
12588;DHT22;6359;51.450;7.346;2022-08-07T07:41:56;31.90;74.90
12588;DHT22;6359;51.450;7.346;2022-08-07T07:44:26;31.50;70.40
12588;DHT22;6359;51.450;7.346;2022-08-07T07:46:55;32.00;66.10
12588;DHT22;6359;51.450;7.346;2022-08-07T07:49:24;32.10;69.00
12588;DHT22;6359;51.450;7.346;2022-08-07T07:51:52;31.60;70.30
12588;DHT22;6359;51.450;7.346;2022-08-07T07:54:21;33.60;65.50
12588;DHT22;6359;51.450;7.346;2022-08-07T07:56:50;33.50;64.90
12588;DHT22;6359;51.450;7.346;2022-08-07T07:59:19;34.50;60.60
12588;DHT22;6359;51.450;7.346;2022-08-07T08:01:48;33.90;59.30
12588;DHT22;6359;51.450;7.346;2022-08-07T08:04:15;33.30;59.60
12588;DHT22;6359;51.450;7.346;2022-08-07T08:06:44;32.30;60.10
12588;DHT22;6359;51.450;7.346;2022-08-07T08:09:14;32.20;60.90
12588;DHT22;6359;51.450;7.346;2022-08-07T08:11:42;32.80;60.80
12588;DHT22;6359;51.450;7.346;2022-08-07T08:14:09;32.80;61.60
12588;DHT22;6359;51.450;7.346;2022-08-07T08:16:41;33.30;58.80
12588;DHT22;6359;51.450;7.346;2022-08-07T08:19:11;33.30;57.00
12588;DHT22;6359;51.450;7.346;2022-08-07T08:21:40;32.10;55.20
12588;DHT22;6359;51.450;7.346;2022-08-07T08:24:27;31.70;56.20
12588;DHT22;6359;51.450;7.346;2022-08-07T08:27:12;32.00;58.00
12588;DHT22;6359;51.450;7.346;2022-08-07T08:29:43;32.70;56.20
12588;DHT22;6359;51.450;7.346;2022-08-07T08:32:17;32.70;55.60
12588;DHT22;6359;51.450;7.346;2022-08-07T08:34:47;32.30;56.30
12588;DHT22;6359;51.450;7.346;2022-08-07T08:37:17;32.30;53.50
12588;DHT22;6359;51.450;7.346;2022-08-07T08:39:45;32.00;51.30
12588;DHT22;6359;51.450;7.346;2022-08-07T08:42:21;31.30;48.10
12588;DHT22;6359;51.450;7.346;2022-08-07T08:44:56;29.90;51.40
12588;DHT22;6359;51.450;7.346;2022-08-07T08:47:30;29.60;50.60
12588;DHT22;6359;51.450;7.346;2022-08-07T08:50:06;29.10;50.90
12588;DHT22;6359;51.450;7.346;2022-08-07T08:52:38;29.90;52.10
12588;DHT22;6359;51.450;7.346;2022-08-07T08:55:16;30.10;51.30
12588;DHT22;6359;51.450;7.346;2022-08-07T08:57:49;30.00;51.50
12588;DHT22;6359;51.450;7.346;2022-08-07T09:00:17;29.50;52.20
12588;DHT22;6359;51.450;7.346;2022-08-07T09:02:53;28.60;53.50
12588;DHT22;6359;51.450;7.346;2022-08-07T09:05:28;28.60;55.40
12588;DHT22;6359;51.450;7.346;2022-08-07T09:08:03;28.80;55.00
12588;DHT22;6359;51.450;7.346;2022-08-07T09:10:41;29.60;54.90
12588;DHT22;6359;51.450;7.346;2022-08-07T09:13:17;29.80;54.30
12588;DHT22;6359;51.450;7.346;2022-08-07T09:15:53;30.50;53.30
12588;DHT22;6359;51.450;7.346;2022-08-07T09:18:35;31.10;52.60
12588;DHT22;6359;51.450;7.346;2022-08-07T09:21:22;30.60;51.60
12588;DHT22;6359;51.450;7.346;2022-08-07T09:23:58;31.00;53.50
12588;DHT22;6359;51.450;7.346;2022-08-07T09:26:32;31.50;51.20
12588;DHT22;6359;51.450;7.346;2022-08-07T09:29:10;31.00;50.80
12588;DHT22;6359;51.450;7.346;2022-08-07T09:31:57;31.20;51.80
12588;DHT22;6359;51.450;7.346;2022-08-07T09:34:43;32.30;50.90
12588;DHT22;6359;51.450;7.346;2022-08-07T09:37:21;32.60;50.00
12588;DHT22;6359;51.450;7.346;2022-08-07T09:39:57;32.10;49.80
12588;DHT22;6359;51.450;7.346;2022-08-07T09:42:39;32.10;50.30
12588;DHT22;6359;51.450;7.346;2022-08-07T09:45:13;31.70;49.70
12588;DHT22;6359;51.450;7.346;2022-08-07T09:47:48;32.10;48.50
12588;DHT22;6359;51.450;7.346;2022-08-07T09:50:29;32.50;47.40
12588;DHT22;6359;51.450;7.346;2022-08-07T09:53:01;33.10;46.80
12588;DHT22;6359;51.450;7.346;2022-08-07T09:55:35;33.10;47.00
12588;DHT22;6359;51.450;7.346;2022-08-07T09:58:28;33.50;46.10
12588;DHT22;6359;51.450;7.346;2022-08-07T10:01:05;33.20;45.50
12588;DHT22;6359;51.450;7.346;2022-08-07T10:03:49;32.30;45.20
12588;DHT22;6359;51.450;7.346;2022-08-07T10:06:35;31.20;48.90
12588;DHT22;6359;51.450;7.346;2022-08-07T10:09:20;31.30;49.40
12588;DHT22;6359;51.450;7.346;2022-08-07T10:12:05;31.70;49.10
12588;DHT22;6359;51.450;7.346;2022-08-07T10:15:00;31.80;48.00
12588;DHT22;6359;51.450;7.346;2022-08-07T10:18:01;31.80;47.50
12588;DHT22;6359;51.450;7.346;2022-08-07T10:20:44;33.00;45.80
12588;DHT22;6359;51.450;7.346;2022-08-07T10:23:38;33.30;46.50
12588;DHT22;6359;51.450;7.346;2022-08-07T10:26:17;33.00;46.10
12588;DHT22;6359;51.450;7.346;2022-08-07T10:28:57;33.40;45.10
12588;DHT22;6359;51.450;7.346;2022-08-07T10:31:39;32.20;46.00
12588;DHT22;6359;51.450;7.346;2022-08-07T10:34:23;31.40;46.60
12588;DHT22;6359;51.450;7.346;2022-08-07T10:37:04;31.70;46.10
12588;DHT22;6359;51.450;7.346;2022-08-07T10:39:46;31.80;46.20
12588;DHT22;6359;51.450;7.346;2022-08-07T10:42:25;31.60;47.90
12588;DHT22;6359;51.450;7.346;2022-08-07T10:45:00;31.60;47.60
12588;DHT22;6359;51.450;7.346;2022-08-07T10:47:32;31.40;47.50
12588;DHT22;6359;51.450;7.346;2022-08-07T10:50:07;31.20;47.80
12588;DHT22;6359;51.450;7.346;2022-08-07T10:52:42;30.90;48.70
12588;DHT22;6359;51.450;7.346;2022-08-07T10:55:19;30.70;51.80
12588;DHT22;6359;51.450;7.346;2022-08-07T10:57:51;31.20;49.20
12588;DHT22;6359;51.450;7.346;2022-08-07T11:00:26;31.10;48.10
12588;DHT22;6359;51.450;7.346;2022-08-07T11:02:58;31.20;48.10
12588;DHT22;6359;51.450;7.346;2022-08-07T11:05:35;31.40;47.30
12588;DHT22;6359;51.450;7.346;2022-08-07T11:08:11;31.40;47.20
12588;DHT22;6359;51.450;7.346;2022-08-07T11:10:47;30.80;47.70
12588;DHT22;6359;51.450;7.346;2022-08-07T11:13:31;30.00;50.50
12588;DHT22;6359;51.450;7.346;2022-08-07T11:16:05;30.40;48.10
12588;DHT22;6359;51.450;7.346;2022-08-07T11:18:37;28.90;48.40
12588;DHT22;6359;51.450;7.346;2022-08-07T11:21:08;28.70;49.90
12588;DHT22;6359;51.450;7.346;2022-08-07T11:23:44;28.50;50.40
12588;DHT22;6359;51.450;7.346;2022-08-07T11:26:20;28.80;53.00
12588;DHT22;6359;51.450;7.346;2022-08-07T11:28:57;28.20;51.40
12588;DHT22;6359;51.450;7.346;2022-08-07T11:31:33;28.50;53.00
12588;DHT22;6359;51.450;7.346;2022-08-07T11:34:08;27.60;51.00
12588;DHT22;6359;51.450;7.346;2022-08-07T11:36:47;27.80;51.80
12588;DHT22;6359;51.450;7.346;2022-08-07T11:39:27;27.70;51.60
12588;DHT22;6359;51.450;7.346;2022-08-07T11:42:02;27.10;52.80
12588;DHT22;6359;51.450;7.346;2022-08-07T11:44:40;27.00;53.00
12588;DHT22;6359;51.450;7.346;2022-08-07T11:47:30;27.10;52.60
12588;DHT22;6359;51.450;7.346;2022-08-07T11:50:14;27.30;52.50
12588;DHT22;6359;51.450;7.346;2022-08-07T11:52:54;27.40;53.60
12588;DHT22;6359;51.450;7.346;2022-08-07T11:55:40;27.20;51.70
12588;DHT22;6359;51.450;7.346;2022-08-07T11:58:15;27.30;53.50
12588;DHT22;6359;51.450;7.346;2022-08-07T12:00:55;27.10;52.50
12588;DHT22;6359;51.450;7.346;2022-08-07T12:03:43;26.90;52.50
12588;DHT22;6359;51.450;7.346;2022-08-07T12:06:23;26.90;53.80
12588;DHT22;6359;51.450;7.346;2022-08-07T12:08:55;26.40;51.40
12588;DHT22;6359;51.450;7.346;2022-08-07T12:11:30;26.30;53.10
12588;DHT22;6359;51.450;7.346;2022-08-07T12:14:05;26.40;53.70
12588;DHT22;6359;51.450;7.346;2022-08-07T12:16:35;26.30;53.70
12588;DHT22;6359;51.450;7.346;2022-08-07T12:19:15;26.50;53.40
12588;DHT22;6359;51.450;7.346;2022-08-07T12:21:52;26.40;52.40
12588;DHT22;6359;51.450;7.346;2022-08-07T12:24:26;26.60;52.80
12588;DHT22;6359;51.450;7.346;2022-08-07T12:27:01;26.20;52.00
12588;DHT22;6359;51.450;7.346;2022-08-07T12:29:37;25.90;51.90
12588;DHT22;6359;51.450;7.346;2022-08-07T12:32:13;25.80;52.80
12588;DHT22;6359;51.450;7.346;2022-08-07T12:34:42;26.00;55.60
12588;DHT22;6359;51.450;7.346;2022-08-07T12:37:12;26.40;53.30
12588;DHT22;6359;51.450;7.346;2022-08-07T12:39:43;26.50;53.90
12588;DHT22;6359;51.450;7.346;2022-08-07T12:42:11;26.60;52.80
12588;DHT22;6359;51.450;7.346;2022-08-07T12:44:42;26.60;52.80
12588;DHT22;6359;51.450;7.346;2022-08-07T12:47:17;26.40;51.90
12588;DHT22;6359;51.450;7.346;2022-08-07T12:49:52;26.00;52.50
12588;DHT22;6359;51.450;7.346;2022-08-07T12:52:30;26.40;53.70
12588;DHT22;6359;51.450;7.346;2022-08-07T12:55:06;26.70;54.30
12588;DHT22;6359;51.450;7.346;2022-08-07T12:57:37;27.00;54.10
12588;DHT22;6359;51.450;7.346;2022-08-07T13:00:07;27.10;53.50
12588;DHT22;6359;51.450;7.346;2022-08-07T13:02:49;27.30;52.70
12588;DHT22;6359;51.450;7.346;2022-08-07T13:05:24;27.20;52.90
12588;DHT22;6359;51.450;7.346;2022-08-07T13:08:21;26.90;51.30
12588;DHT22;6359;51.450;7.346;2022-08-07T13:11:05;26.80;52.90
12588;DHT22;6359;51.450;7.346;2022-08-07T13:13:50;26.60;51.90
12588;DHT22;6359;51.450;7.346;2022-08-07T13:16:28;26.30;51.80
12588;DHT22;6359;51.450;7.346;2022-08-07T13:19:02;26.10;51.60
12588;DHT22;6359;51.450;7.346;2022-08-07T13:21:35;26.00;52.70
12588;DHT22;6359;51.450;7.346;2022-08-07T13:24:10;26.10;53.30
12588;DHT22;6359;51.450;7.346;2022-08-07T13:26:45;25.80;53.00
12588;DHT22;6359;51.450;7.346;2022-08-07T13:29:19;25.70;54.10
12588;DHT22;6359;51.450;7.346;2022-08-07T13:31:52;25.90;54.10
12588;DHT22;6359;51.450;7.346;2022-08-07T13:34:30;26.10;54.60
12588;DHT22;6359;51.450;7.346;2022-08-07T13:37:03;26.20;53.00
12588;DHT22;6359;51.450;7.346;2022-08-07T13:39:35;26.00;52.80
12588;DHT22;6359;51.450;7.346;2022-08-07T13:42:05;26.00;54.10
12588;DHT22;6359;51.450;7.346;2022-08-07T13:44:37;26.10;55.00
12588;DHT22;6359;51.450;7.346;2022-08-07T13:47:08;26.30;53.50
12588;DHT22;6359;51.450;7.346;2022-08-07T13:49:38;26.30;53.20
12588;DHT22;6359;51.450;7.346;2022-08-07T13:52:08;26.20;52.40
12588;DHT22;6359;51.450;7.346;2022-08-07T13:54:38;26.20;52.70
12588;DHT22;6359;51.450;7.346;2022-08-07T13:57:08;26.30;52.60
12588;DHT22;6359;51.450;7.346;2022-08-07T13:59:42;26.20;51.90
12588;DHT22;6359;51.450;7.346;2022-08-07T14:02:12;26.20;52.70
12588;DHT22;6359;51.450;7.346;2022-08-07T14:04:47;26.00;52.30
12588;DHT22;6359;51.450;7.346;2022-08-07T14:07:15;25.80;52.20
12588;DHT22;6359;51.450;7.346;2022-08-07T14:09:43;25.90;53.10
12588;DHT22;6359;51.450;7.346;2022-08-07T14:12:19;25.90;52.70
12588;DHT22;6359;51.450;7.346;2022-08-07T14:14:53;26.00;53.60
12588;DHT22;6359;51.450;7.346;2022-08-07T14:17:23;26.00;53.60
12588;DHT22;6359;51.450;7.346;2022-08-07T14:19:54;25.80;53.00
12588;DHT22;6359;51.450;7.346;2022-08-07T14:22:25;25.80;51.90
12588;DHT22;6359;51.450;7.346;2022-08-07T14:24:58;25.70;51.70
12588;DHT22;6359;51.450;7.346;2022-08-07T14:27:31;25.00;51.10
12588;DHT22;6359;51.450;7.346;2022-08-07T14:30:02;24.90;52.30
12588;DHT22;6359;51.450;7.346;2022-08-07T14:32:37;25.10;52.60
12588;DHT22;6359;51.450;7.346;2022-08-07T14:35:09;25.30;52.40
12588;DHT22;6359;51.450;7.346;2022-08-07T14:37:37;25.40;51.50
12588;DHT22;6359;51.450;7.346;2022-08-07T14:40:06;25.50;52.00
12588;DHT22;6359;51.450;7.346;2022-08-07T14:42:36;25.80;51.70
12588;DHT22;6359;51.450;7.346;2022-08-07T14:45:05;25.90;51.50
12588;DHT22;6359;51.450;7.346;2022-08-07T14:47:34;25.80;51.70
12588;DHT22;6359;51.450;7.346;2022-08-07T14:50:04;25.90;51.50
12588;DHT22;6359;51.450;7.346;2022-08-07T14:52:32;26.00;52.10
12588;DHT22;6359;51.450;7.346;2022-08-07T14:55:01;26.00;51.40
12588;DHT22;6359;51.450;7.346;2022-08-07T14:57:30;25.90;52.50
12588;DHT22;6359;51.450;7.346;2022-08-07T14:59:59;26.10;51.70
12588;DHT22;6359;51.450;7.346;2022-08-07T15:02:26;26.10;51.50
12588;DHT22;6359;51.450;7.346;2022-08-07T15:04:55;26.00;52.30
12588;DHT22;6359;51.450;7.346;2022-08-07T15:07:24;25.80;52.10
12588;DHT22;6359;51.450;7.346;2022-08-07T15:09:55;25.80;53.00
12588;DHT22;6359;51.450;7.346;2022-08-07T15:12:24;25.90;53.30
12588;DHT22;6359;51.450;7.346;2022-08-07T15:14:54;26.00;53.10
12588;DHT22;6359;51.450;7.346;2022-08-07T15:17:27;26.00;52.00
12588;DHT22;6359;51.450;7.346;2022-08-07T15:20:02;25.80;51.90
12588;DHT22;6359;51.450;7.346;2022-08-07T15:22:40;25.70;52.20
12588;DHT22;6359;51.450;7.346;2022-08-07T15:25:11;25.70;53.50
12588;DHT22;6359;51.450;7.346;2022-08-07T15:27:41;25.80;54.20
12588;DHT22;6359;51.450;7.346;2022-08-07T15:30:11;25.80;53.50
12588;DHT22;6359;51.450;7.346;2022-08-07T15:32:40;25.80;53.00
12588;DHT22;6359;51.450;7.346;2022-08-07T15:35:15;25.60;52.80
12588;DHT22;6359;51.450;7.346;2022-08-07T15:37:47;25.60;53.50
12588;DHT22;6359;51.450;7.346;2022-08-07T15:40:15;25.50;53.20
12588;DHT22;6359;51.450;7.346;2022-08-07T15:42:52;25.50;54.00
12588;DHT22;6359;51.450;7.346;2022-08-07T15:45:31;25.50;54.90
12588;DHT22;6359;51.450;7.346;2022-08-07T15:48:01;25.50;54.30
12588;DHT22;6359;51.450;7.346;2022-08-07T15:50:33;25.40;54.60
12588;DHT22;6359;51.450;7.346;2022-08-07T15:53:06;25.20;55.60
12588;DHT22;6359;51.450;7.346;2022-08-07T15:55:33;25.10;54.80
12588;DHT22;6359;51.450;7.346;2022-08-07T15:58:01;25.10;55.00
12588;DHT22;6359;51.450;7.346;2022-08-07T16:00:31;25.10;55.50
12588;DHT22;6359;51.450;7.346;2022-08-07T16:03:06;25.10;55.50
12588;DHT22;6359;51.450;7.346;2022-08-07T16:05:36;25.20;55.10
12588;DHT22;6359;51.450;7.346;2022-08-07T16:08:09;25.10;56.50
12588;DHT22;6359;51.450;7.346;2022-08-07T16:10:38;25.10;56.80
12588;DHT22;6359;51.450;7.346;2022-08-07T16:16:17;25.00;56.60
12588;DHT22;6359;51.450;7.346;2022-08-07T16:18:59;25.00;56.50
12588;DHT22;6359;51.450;7.346;2022-08-07T16:21:38;24.90;57.30